createdAt,value
2023-01-10T00:03:17.569Z,32.30
2023-01-10T00:06:53.548Z,30.70
2023-01-10T00:10:35.646Z,33.00
2023-01-10T00:13:32.905Z,32.20
2023-01-10T00:16:42.787Z,31.10
2023-01-10T00:20:12.594Z,33.10
2023-01-10T00:23:18.422Z,31.50
2023-01-10T00:26:46.278Z,32.20
2023-01-10T00:30:28.910Z,31.30
2023-01-10T00:33:46.892Z,31.60
2023-01-10T00:37:41.824Z,30.30
2023-01-10T00:41:01.179Z,30.30
2023-01-10T00:44:32.559Z,30.60
2023-01-10T00:48:04.829Z,30.20
2023-01-10T00:51:51.113Z,30.90
2023-01-10T00:55:45.150Z,30.70
2023-01-10T00:59:41.990Z,30.30
2023-01-10T01:03:14.360Z,31.70
2023-01-10T01:07:18.178Z,30.90
2023-01-10T01:10:49.393Z,27.00
2023-01-10T01:14:35.808Z,30.80
2023-01-10T01:18:05.627Z,29.40
2023-01-10T01:22:02.279Z,27.70
2023-01-10T01:25:37.313Z,25.80
2023-01-10T01:29:29.963Z,26.90
2023-01-10T01:33:11.900Z,27.60
2023-01-10T01:36:58.287Z,24.40
2023-01-10T01:40:45.038Z,25.00
2023-01-10T01:44:23.595Z,24.80
2023-01-10T01:48:00.137Z,24.00
2023-01-10T01:51:16.025Z,24.00
2023-01-10T01:54:23.165Z,25.60
2023-01-10T01:57:41.183Z,23.50
2023-01-10T02:00:41.721Z,23.00
2023-01-10T02:03:49.341Z,23.50
2023-01-10T02:06:32.417Z,24.30
2023-01-10T02:09:28.331Z,22.80
2023-01-10T02:12:14.079Z,23.00
2023-01-10T02:14:58.658Z,22.80
2023-01-10T02:17:41.987Z,23.60
2023-01-10T02:20:28.893Z,22.50
2023-01-10T02:24:09.405Z,21.80
2023-01-10T02:27:11.074Z,20.80
2023-01-10T02:30:12.567Z,25.70
2023-01-10T02:33:05.870Z,21.50
2023-01-10T02:36:13.531Z,21.30
2023-01-10T02:39:12.883Z,21.80
2023-01-10T02:42:05.231Z,20.40
2023-01-10T02:44:48.065Z,21.30
2023-01-10T02:50:41.550Z,18.40
2023-01-10T02:53:40.007Z,18.40
2023-01-10T02:56:25.625Z,19.20
2023-01-10T02:59:46.488Z,18.60
2023-01-10T03:02:49.915Z,20.30
2023-01-10T03:05:55.362Z,18.70
2023-01-10T03:09:04.979Z,19.30
2023-01-10T03:11:52.311Z,18.60
2023-01-10T03:14:38.588Z,19.90
2023-01-10T03:17:24.661Z,18.80
2023-01-10T03:20:09.044Z,19.80
2023-01-10T03:22:55.535Z,19.20
2023-01-10T03:25:40.210Z,19.10
2023-01-10T03:28:42.143Z,17.50
2023-01-10T03:31:35.975Z,16.90
2023-01-10T03:34:20.044Z,18.40
2023-01-10T03:37:16.263Z,16.00
2023-01-10T03:40:09.576Z,16.20
2023-01-10T03:43:22.193Z,18.10
2023-01-10T03:46:27.764Z,16.40
2023-01-10T03:49:13.702Z,17.40
2023-01-10T03:51:58.907Z,16.90
2023-01-10T03:54:45.719Z,15.80
2023-01-10T03:57:28.552Z,16.70
2023-01-10T04:00:13.449Z,16.20
2023-01-10T04:02:58.301Z,16.20
2023-01-10T04:05:41.147Z,16.20
2023-01-10T04:11:06.746Z,15.90
2023-01-10T04:16:32.395Z,15.90
2023-01-10T04:19:15.207Z,15.90
2023-01-10T04:24:40.943Z,15.40
2023-01-10T04:27:24.566Z,17.10
2023-01-10T04:30:08.900Z,16.80
2023-01-10T04:32:51.832Z,16.40
2023-01-10T04:35:34.657Z,14.80
2023-01-10T04:41:00.450Z,14.30
2023-01-10T04:46:26.282Z,14.20
2023-01-10T04:49:12.407Z,16.20
2023-01-10T04:51:55.341Z,16.10
2023-01-10T04:54:38.383Z,16.70
2023-01-10T04:57:21.386Z,17.10
2023-01-10T05:00:04.852Z,16.40
2023-01-10T05:02:47.944Z,16.90
2023-01-10T05:05:32.012Z,16.00
2023-01-10T05:08:14.899Z,16.80
2023-01-10T05:13:41.380Z,15.30
2023-01-10T05:16:25.596Z,17.00
2023-01-10T05:19:08.763Z,16.90
2023-01-10T05:21:53.360Z,16.50
2023-01-10T05:24:36.183Z,15.50
2023-01-10T05:30:01.838Z,15.30
2023-01-10T05:32:44.932Z,16.70
2023-01-10T05:35:27.802Z,16.10
2023-01-10T05:40:59.064Z,17.20
2023-01-10T05:43:42.020Z,15.10
2023-01-10T05:46:24.952Z,17.70
2023-01-10T05:49:07.867Z,16.70
2023-01-10T05:51:50.867Z,16.80
2023-01-10T05:54:33.799Z,16.70
2023-01-10T05:57:16.688Z,15.80
2023-01-10T05:59:59.583Z,14.60
2023-01-10T06:02:42.669Z,15.30
2023-01-10T06:05:25.766Z,15.90
2023-01-10T06:08:08.587Z,15.20
2023-01-10T06:13:34.283Z,15.40
2023-01-10T06:16:17.152Z,13.90
2023-01-10T06:19:00.072Z,14.40
2023-01-10T06:21:43.089Z,15.30
2023-01-10T06:24:25.926Z,14.70
2023-01-10T06:29:51.486Z,14.70
2023-01-10T06:35:18.204Z,13.90
2023-01-10T06:38:01.151Z,17.40
2023-01-10T06:40:44.083Z,18.30
2023-01-10T06:43:26.981Z,18.80
2023-01-10T06:46:10.245Z,19.50
2023-01-10T06:48:53.134Z,19.20
2023-01-10T06:54:20.708Z,18.90
2023-01-10T06:57:03.675Z,19.50
2023-01-10T06:59:46.522Z,19.80
2023-01-10T07:02:29.431Z,18.90
2023-01-10T07:05:12.792Z,17.20
2023-01-10T07:07:57.930Z,17.10
2023-01-10T07:10:42.103Z,18.80
2023-01-10T07:13:25.080Z,16.50
2023-01-10T07:16:14.294Z,17.80
2023-01-10T07:18:58.391Z,15.60
2023-01-10T07:21:41.691Z,16.10
2023-01-10T07:24:24.477Z,16.00
2023-01-10T07:29:50.002Z,16.60
2023-01-10T07:35:16.997Z,15.50
2023-01-10T07:38:00.352Z,16.40
2023-01-10T07:40:44.370Z,15.90
2023-01-10T07:43:27.283Z,17.10
2023-01-10T07:48:55.365Z,15.70
2023-01-10T07:54:21.167Z,16.00
2023-01-10T07:57:04.043Z,15.50
2023-01-10T07:59:46.833Z,16.40
2023-01-10T08:02:29.822Z,16.50
2023-01-10T08:05:13.461Z,16.70
2023-01-10T08:08:00.128Z,16.80
2023-01-10T08:10:43.479Z,15.30
2023-01-10T08:13:26.921Z,15.50
2023-01-10T08:16:10.244Z,16.50
2023-01-10T08:18:53.353Z,15.80
2023-01-10T08:21:36.231Z,16.90
2023-01-10T08:24:18.998Z,17.60
2023-01-10T08:27:01.983Z,16.50
2023-01-10T08:29:44.991Z,17.90
2023-01-10T08:32:27.808Z,18.30
2023-01-10T08:35:11.541Z,16.40
2023-01-10T08:37:58.144Z,19.50
2023-01-10T08:40:41.152Z,19.10
2023-01-10T08:43:24.662Z,19.30
2023-01-10T08:46:07.929Z,20.20
2023-01-10T08:48:51.876Z,19.00
2023-01-10T08:51:35.186Z,19.80
2023-01-10T08:54:18.002Z,16.70
2023-01-10T08:59:43.833Z,16.40
2023-01-10T09:02:26.633Z,14.90
2023-01-10T09:05:22.271Z,16.70
2023-01-10T09:08:10.081Z,17.20
2023-01-10T09:10:53.408Z,16.60
2023-01-10T09:13:36.273Z,18.20
2023-01-10T09:16:19.402Z,18.20
2023-01-10T09:19:02.660Z,17.70
2023-01-10T09:21:45.484Z,17.00
2023-01-10T09:24:28.393Z,18.20
2023-01-10T09:29:54.279Z,17.20
2023-01-10T09:35:20.106Z,16.90
2023-01-10T09:38:04.250Z,18.90
2023-01-10T09:41:02.032Z,19.20
2023-01-10T09:44:05.183Z,19.20
2023-01-10T09:50:02.160Z,17.50
2023-01-10T09:52:51.015Z,17.20
2023-01-10T09:55:38.331Z,18.20
2023-01-10T09:58:29.491Z,17.10
2023-01-10T10:01:19.889Z,17.90
2023-01-10T10:04:30.472Z,16.30
2023-01-10T10:07:15.157Z,15.70
2023-01-10T10:09:58.458Z,17.10
2023-01-10T10:12:56.818Z,15.00
2023-01-10T10:15:52.753Z,14.40
2023-01-10T10:18:56.650Z,16.90
2023-01-10T10:22:00.710Z,16.50
2023-01-10T10:25:02.037Z,15.00
2023-01-10T10:28:21.699Z,15.50
2023-01-10T10:31:29.851Z,14.90
2023-01-10T10:34:46.406Z,14.80
2023-01-10T10:37:35.937Z,16.50
2023-01-10T10:40:23.135Z,16.00
2023-01-10T10:43:19.995Z,17.70
2023-01-10T10:46:05.833Z,18.60
2023-01-10T10:48:57.494Z,19.00
2023-01-10T10:51:51.174Z,17.70
2023-01-10T10:54:36.399Z,17.70
2023-01-10T10:57:22.120Z,18.40
2023-01-10T11:00:07.304Z,18.30
2023-01-10T11:02:54.540Z,18.90
2023-01-10T11:05:41.559Z,17.50
2023-01-10T11:08:24.567Z,17.60
2023-01-10T11:11:20.914Z,19.70
2023-01-10T11:14:06.265Z,19.50
2023-01-10T11:16:49.147Z,18.70
2023-01-10T11:19:32.102Z,19.70
2023-01-10T11:22:16.958Z,22.60
2023-01-10T11:25:02.201Z,22.00
2023-01-10T11:28:06.321Z,22.20
2023-01-10T11:30:51.071Z,21.60
2023-01-10T11:33:35.844Z,20.20
2023-01-10T11:36:18.676Z,21.20
2023-01-10T11:39:04.162Z,19.20
2023-01-10T11:41:49.376Z,21.80
2023-01-10T11:44:32.310Z,23.00
2023-01-10T11:47:16.248Z,24.10
2023-01-10T11:50:00.130Z,22.30
2023-01-10T11:52:46.472Z,26.30
2023-01-10T11:55:32.511Z,20.70
2023-01-10T11:58:15.544Z,23.50
2023-01-10T12:00:59.097Z,21.20
2023-01-10T12:03:42.074Z,20.30
2023-01-10T12:06:26.061Z,20.50
2023-01-10T12:09:45.410Z,21.80
2023-01-10T12:12:30.302Z,20.50
2023-01-10T12:15:28.150Z,19.30
2023-01-10T12:18:12.351Z,20.50
2023-01-10T12:20:58.056Z,19.50
2023-01-10T12:23:44.537Z,19.70
2023-01-10T12:26:31.135Z,18.00
2023-01-10T12:29:29.988Z,14.90
2023-01-10T12:32:22.689Z,16.30
2023-01-10T12:35:21.750Z,15.40
2023-01-10T12:38:47.335Z,15.60
2023-01-10T12:41:52.495Z,15.90
2023-01-10T12:44:42.027Z,17.20
2023-01-10T12:47:56.835Z,16.60
2023-01-10T12:50:45.085Z,15.30
2023-01-10T12:53:36.519Z,15.40
2023-01-10T12:56:20.702Z,16.10
2023-01-10T12:59:36.710Z,15.50
2023-01-10T13:02:24.318Z,15.30
2023-01-10T13:05:22.406Z,13.70
2023-01-10T13:08:17.728Z,13.30
2023-01-10T13:11:02.356Z,12.90
2023-01-10T13:13:53.463Z,12.40
2023-01-10T13:16:49.163Z,13.90
2023-01-10T13:19:32.051Z,12.50
2023-01-10T13:22:23.609Z,13.30
2023-01-10T13:25:06.869Z,13.30
2023-01-10T13:28:22.679Z,12.70
2023-01-10T13:31:21.829Z,13.00
2023-01-10T13:34:13.058Z,16.20
2023-01-10T13:37:03.271Z,18.20
2023-01-10T13:39:53.975Z,12.00
2023-01-10T13:42:55.887Z,12.10
2023-01-10T13:45:41.517Z,10.30
2023-01-10T13:48:27.928Z,10.30
2023-01-10T13:51:16.891Z,10.40
2023-01-10T13:54:02.558Z,10.60
2023-01-10T13:56:45.869Z,12.60
2023-01-10T13:59:47.252Z,16.60
2023-01-10T14:02:31.593Z,17.60
2023-01-10T14:05:18.501Z,23.20
2023-01-10T14:08:02.554Z,26.50
2023-01-10T14:11:06.134Z,21.90
2023-01-10T14:13:53.875Z,19.20
2023-01-10T14:19:28.739Z,25.10
2023-01-10T14:22:43.824Z,22.10
2023-01-10T14:25:28.829Z,16.50
2023-01-10T14:28:25.130Z,14.70
2023-01-10T14:31:29.173Z,12.20
2023-01-10T14:34:20.870Z,13.60
2023-01-10T14:37:09.790Z,14.90
2023-01-10T14:39:54.018Z,13.30
2023-01-10T14:42:37.775Z,15.70
2023-01-10T14:45:31.528Z,15.10
2023-01-10T14:48:27.441Z,17.40
2023-01-10T14:51:17.421Z,16.60
2023-01-10T14:54:23.464Z,18.70
2023-01-10T14:57:17.935Z,23.80
2023-01-10T15:00:13.878Z,25.10
2023-01-10T15:03:01.633Z,20.10
2023-01-10T15:05:52.249Z,18.10
2023-01-10T15:08:35.175Z,18.50
2023-01-10T15:11:18.407Z,17.60
2023-01-10T15:14:08.313Z,16.70
2023-01-10T15:16:55.479Z,15.80
2023-01-10T15:19:40.566Z,16.10
2023-01-10T15:22:32.806Z,17.90
2023-01-10T15:25:18.838Z,17.40
2023-01-10T15:28:03.029Z,17.90
2023-01-10T15:30:46.844Z,20.60
2023-01-10T15:33:33.017Z,19.40
2023-01-10T15:36:19.635Z,20.80
2023-01-10T15:39:02.710Z,19.00
2023-01-10T15:41:46.176Z,19.50
2023-01-10T15:44:36.877Z,19.40
2023-01-10T15:47:44.549Z,20.50
2023-01-10T15:50:40.817Z,20.80
2023-01-10T15:54:03.307Z,21.20
2023-01-10T15:57:04.582Z,20.50
2023-01-10T15:59:50.353Z,18.70
2023-01-10T16:02:34.252Z,21.30
2023-01-10T16:05:18.221Z,20.50
2023-01-10T16:08:04.504Z,19.70
2023-01-10T16:10:56.198Z,20.70
2023-01-10T16:13:39.098Z,20.30
2023-01-10T16:16:22.102Z,19.20
2023-01-10T16:19:05.336Z,19.80
2023-01-10T16:21:53.959Z,20.50
2023-01-10T16:24:42.109Z,19.50
2023-01-10T16:27:25.008Z,18.80
2023-01-10T16:30:21.867Z,18.40
2023-01-10T16:33:13.091Z,19.00
2023-01-10T16:35:58.211Z,22.90
2023-01-10T16:38:41.899Z,25.30
2023-01-10T16:41:43.462Z,25.70
2023-01-10T16:44:26.292Z,32.10
2023-01-10T16:47:09.106Z,43.00
2023-01-10T16:49:52.080Z,41.90
2023-01-10T16:52:34.960Z,34.70
2023-01-10T16:55:22.709Z,35.90
2023-01-10T16:58:05.597Z,26.90
2023-01-10T17:00:52.611Z,26.70
2023-01-10T17:03:39.679Z,24.30
2023-01-10T17:06:22.553Z,23.60
2023-01-10T17:09:05.526Z,25.80
2023-01-10T17:11:54.490Z,24.40
2023-01-10T17:14:38.891Z,22.90
2023-01-10T17:17:21.747Z,22.40
2023-01-10T17:20:06.195Z,23.30
2023-01-10T17:22:49.121Z,23.80
2023-01-10T17:25:32.634Z,23.10
2023-01-10T17:28:15.727Z,23.00
2023-01-10T17:30:59.236Z,24.00
2023-01-10T17:33:42.430Z,24.40
2023-01-10T17:36:29.842Z,21.80
2023-01-10T17:39:12.763Z,21.10
2023-01-10T17:41:59.737Z,21.20
2023-01-10T17:44:44.028Z,20.60
2023-01-10T17:47:27.023Z,19.90
2023-01-10T17:50:09.876Z,19.20
2023-01-10T17:52:52.812Z,18.90
2023-01-10T17:55:37.774Z,19.60
2023-01-10T17:58:22.545Z,21.40
2023-01-10T18:01:10.757Z,21.00
2023-01-10T18:03:54.231Z,20.50
2023-01-10T18:06:37.175Z,19.40
2023-01-10T18:09:20.268Z,19.40
2023-01-10T18:12:03.268Z,21.10
2023-01-10T18:14:55.141Z,19.30
2023-01-10T18:17:38.822Z,19.20
2023-01-10T18:20:21.742Z,18.90
2023-01-10T18:23:23.191Z,19.00
2023-01-10T18:26:10.850Z,18.30
2023-01-10T18:28:54.347Z,18.10
2023-01-10T18:31:37.197Z,19.40
2023-01-10T18:34:20.314Z,20.30
2023-01-10T18:37:04.557Z,16.80
2023-01-10T18:39:49.612Z,18.70
2023-01-10T18:42:32.890Z,17.40
2023-01-10T18:45:16.723Z,17.40
2023-01-10T18:48:01.748Z,18.10
2023-01-10T18:50:47.289Z,16.80
2023-01-10T18:53:31.110Z,17.90
2023-01-10T18:56:14.987Z,16.30
2023-01-10T18:58:58.868Z,17.10
2023-01-10T19:01:42.026Z,17.80
2023-01-10T19:04:25.118Z,19.30
2023-01-10T19:07:08.457Z,19.50
2023-01-10T19:09:51.378Z,20.20
2023-01-10T19:12:34.488Z,20.10
2023-01-10T19:15:17.413Z,20.10
2023-01-10T19:18:00.572Z,20.70
2023-01-10T19:20:43.648Z,21.00
2023-01-10T19:23:26.627Z,20.40
2023-01-10T19:26:09.933Z,22.70
2023-01-10T19:28:53.961Z,20.20
2023-01-10T19:31:39.943Z,19.60
2023-01-10T19:34:23.127Z,20.60
2023-01-10T19:37:06.658Z,20.50
2023-01-10T19:39:49.552Z,21.00
2023-01-10T19:42:36.379Z,21.90
2023-01-10T19:45:19.316Z,22.60
2023-01-10T19:48:03.897Z,21.90
2023-01-10T19:50:47.155Z,23.80
2023-01-10T19:53:30.081Z,22.00
2023-01-10T19:56:24.995Z,21.80
2023-01-10T19:59:08.216Z,26.80
2023-01-10T20:01:51.210Z,23.90
2023-01-10T20:04:34.410Z,28.50
2023-01-10T20:07:18.724Z,27.10
2023-01-10T20:10:01.967Z,27.60
2023-01-10T20:12:45.428Z,27.50
2023-01-10T20:15:28.353Z,27.90
2023-01-10T20:18:11.255Z,29.40
2023-01-10T20:20:54.155Z,26.70
2023-01-10T20:23:39.676Z,27.80
2023-01-10T20:26:27.913Z,27.90
2023-01-10T20:29:12.334Z,29.00
2023-01-10T20:31:57.608Z,29.40
2023-01-10T20:34:41.512Z,26.40
2023-01-10T20:37:25.118Z,28.20
2023-01-10T20:40:12.077Z,27.50
2023-01-10T20:42:55.099Z,27.40
2023-01-10T20:45:38.328Z,28.90
2023-01-10T20:48:22.264Z,29.70
2023-01-10T20:51:06.722Z,29.10
2023-01-10T20:53:50.621Z,30.10
2023-01-10T20:56:35.438Z,30.00
2023-01-10T20:59:18.326Z,32.60
2023-01-10T21:02:02.329Z,33.10
2023-01-10T21:04:45.484Z,30.80
2023-01-10T21:07:29.423Z,32.00
2023-01-10T21:10:12.938Z,32.30
2023-01-10T21:12:56.173Z,34.30
2023-01-10T21:15:41.050Z,30.40
2023-01-10T21:18:30.594Z,30.30
2023-01-10T21:21:16.058Z,31.70
2023-01-10T21:23:58.868Z,30.00
2023-01-10T21:26:41.887Z,33.20
2023-01-10T21:29:24.843Z,30.20
2023-01-10T21:32:09.302Z,33.20
2023-01-10T21:34:53.296Z,31.00
2023-01-10T21:37:36.209Z,30.10
2023-01-10T21:40:19.326Z,30.80
2023-01-10T21:43:02.798Z,31.20
2023-01-10T21:45:45.832Z,30.40
2023-01-10T21:48:30.122Z,30.20
2023-01-10T21:51:16.503Z,29.90
2023-01-10T21:54:00.379Z,29.00
2023-01-10T21:56:43.366Z,28.50
2023-01-10T21:59:26.385Z,26.80
2023-01-10T22:02:15.168Z,28.60
2023-01-10T22:04:58.150Z,27.00
2023-01-10T22:07:44.931Z,27.00
2023-01-10T22:10:27.755Z,27.00
2023-01-10T22:13:10.582Z,26.20
2023-01-10T22:18:45.951Z,27.30
2023-01-10T22:24:12.087Z,25.40
2023-01-10T22:26:55.873Z,27.70
2023-01-10T22:29:38.731Z,27.60
2023-01-10T22:32:21.624Z,27.10
2023-01-10T22:35:04.911Z,27.30
2023-01-10T22:37:47.875Z,27.20
2023-01-10T22:40:30.786Z,28.20
2023-01-10T22:43:13.751Z,29.00
2023-01-10T22:45:56.585Z,28.60
2023-01-10T22:48:39.499Z,29.00
2023-01-10T22:51:24.157Z,28.30
2023-01-10T22:54:07.278Z,28.20
2023-01-10T22:56:50.526Z,31.10
2023-01-10T22:59:34.967Z,27.70
2023-01-10T23:02:17.961Z,27.60
2023-01-10T23:05:01.013Z,28.30
2023-01-10T23:07:44.019Z,27.40
2023-01-10T23:10:30.656Z,27.80
2023-01-10T23:13:15.840Z,27.10
2023-01-10T23:16:08.291Z,26.90
2023-01-10T23:18:51.182Z,28.80
2023-01-10T23:21:34.167Z,27.70
2023-01-10T23:24:17.167Z,28.00
2023-01-10T23:27:01.106Z,27.40
2023-01-10T23:29:43.904Z,27.80
2023-01-10T23:35:11.531Z,24.90
2023-01-10T23:37:54.504Z,24.90
2023-01-10T23:40:37.420Z,25.20
2023-01-10T23:43:20.432Z,24.60
2023-01-10T23:46:04.657Z,24.70
2023-01-10T23:48:48.554Z,25.30
2023-01-10T23:51:32.575Z,23.90
2023-01-10T23:54:17.339Z,22.50
2023-01-10T23:57:00.431Z,21.70
2023-01-10T23:59:44.431Z,22.90
